This is the latest recevied weather packets stored in our database for station/object N7SWJ. If no packets are shown the sender has not sent any weather packets the latest 10 day(s).
| Time | Temp. | Humidity | Pressure | Rain* | Wind** | Luminosity | Snow |
|---|---|---|---|---|---|---|---|
| 1777152030 | 12.78° C | 42% | 1012.5 hPa | 0 mm | - | 600 W/m² | - |
| 1777151725 | 13.89° C | 40% | 1012.5 hPa | 0 mm | - | 612 W/m² | - |
| 1777151423 | 13.89° C | 41% | 1012.3 hPa | 0 mm | - | 622 W/m² | - |
| 1777151119 | 13.33° C | 40% | 1012.4 hPa | 0 mm | - | 530 W/m² | - |
| 1777150814 | 13.33° C | 42% | 1012.9 hPa | 0 mm | - | 665 W/m² | - |
| 1777150508 | 12.22° C | 43% | 1012.9 hPa | 0 mm | - | 497 W/m² | - |
| 1777150204 | 12.78° C | 42% | 1012.7 hPa | 0 mm | - | 520 W/m² | - |
| 1777149903 | 11.67° C | 45% | 1012.7 hPa | 0 mm | - | 674 W/m² | - |
| 1777149598 | 12.22° C | 43% | 1012.4 hPa | 0 mm | - | 679 W/m² | - |
| 1777149296 | 12.22° C | 43% | 1012.5 hPa | 0 mm | - | 686 W/m² | - |
| 1777148996 | 12.22° C | 43% | 1012.7 hPa | 0 mm | - | 696 W/m² | - |
| 1777148692 | 12.22° C | 43% | 1012.8 hPa | 0 mm | - | 696 W/m² | - |
| 1777148387 | 11.11° C | 45% | 1013 hPa | 0 mm | - | 716 W/m² | - |
| 1777148084 | 12.78° C | 42% | 1013 hPa | 0 mm | - | 722 W/m² | - |
| 1777147780 | 12.22° C | 43% | 1012.9 hPa | 0 mm | - | 744 W/m² | - |
| 1777147476 | 12.22° C | 43% | 1013 hPa | 0 mm | - | 610 W/m² | - |
| 1777147172 | 11.11° C | 46% | 1012.9 hPa | 0 mm | - | 750 W/m² | - |
| 1777146868 | 10.56° C | 47% | 1012.9 hPa | 0 mm | - | 745 W/m² | - |
| 1777146564 | 11.67° C | 45% | 1012.9 hPa | 0 mm | - | 741 W/m² | - |
| 1777146260 | 11.67° C | 44% | 1013 hPa | 0 mm | - | 743 W/m² | - |
| 1777145956 | 10.56° C | 46% | 1012.9 hPa | 0 mm | - | 747 W/m² | - |
| 1777145652 | 11.11° C | 45% | 1013.1 hPa | 0 mm | - | 752 W/m² | - |
| 1777145348 | 10.56° C | 46% | 1013 hPa | 0 mm | - | 758 W/m² | - |
| 1777145043 | 10° C | 48% | 1013.3 hPa | 0 mm | - | 769 W/m² | - |
| 1777144736 | 10.56° C | 48% | 1013.2 hPa | 0 mm | - | 797 W/m² | - |
* Rain latest hour (hover to see other rain measurements)
** Current wind speed in m/s (hover to see current wind gust speed)